Time;durP1;ratioP1;P1;durP2;ratioP2;P2;SDS_P1;SDS_P2;PMS_P1;PMS_P2;Temp;Humidity;BMP_temperature;BMP_pressure;BME280_temperature;BME280_humidity;BME280_pressure;Samples;Min_cycle;Max_cycle;Signal;HPM_P1;HPM_P2
2023/05/27 00:02:06;;;;;;;13.85;2.75;;;9.50;99.90;;;;;;5000025;28;20035;-69
2023/05/27 00:04:32;;;;;;;12.73;2.10;;;9.40;99.90;;;;;;5000818;28;20039;-69
2023/05/27 00:06:59;;;;;;;11.90;2.10;;;9.40;99.90;;;;;;5004669;28;20033;-69
2023/05/27 00:09:26;;;;;;;14.90;2.92;;;9.40;99.90;;;;;;5006724;28;21088;-69
2023/05/27 00:11:52;;;;;;;14.73;3.38;;;9.40;99.90;;;;;;5009818;28;21770;-69
2023/05/27 00:14:20;;;;;;;13.82;3.38;;;9.40;99.90;;;;;;4998075;28;20586;-71
2023/05/27 00:16:47;;;;;;;10.55;2.25;;;9.40;99.90;;;;;;4986748;28;20035;-70
2023/05/27 00:19:13;;;;;;;17.40;2.67;;;9.30;99.90;;;;;;4985215;28;20025;-70
2023/05/27 00:21:40;;;;;;;13.48;2.28;;;9.30;99.90;;;;;;4998405;28;20223;-70
2023/05/27 00:24:06;;;;;;;12.95;2.40;;;9.30;99.90;;;;;;5005905;28;20028;-68
2023/05/27 00:26:33;;;;;;;15.15;2.72;;;9.20;99.90;;;;;;5003957;28;20037;-69
2023/05/27 00:28:59;;;;;;;12.95;2.83;;;9.20;99.90;;;;;;5008101;28;20033;-70
2023/05/27 00:31:25;;;;;;;12.52;2.33;;;9.20;99.90;;;;;;4992286;28;21606;-70
2023/05/27 00:33:52;;;;;;;12.50;3.00;;;9.20;99.90;;;;;;4998923;28;20041;-71
2023/05/27 00:36:19;;;;;;;13.93;2.58;;;9.20;99.90;;;;;;5007671;28;20132;-70
2023/05/27 00:38:45;;;;;;;10.77;2.90;;;9.10;99.90;;;;;;5003710;28;20041;-69
2023/05/27 00:41:12;;;;;;;11.55;2.42;;;9.10;99.90;;;;;;4979195;28;20037;-69
2023/05/27 00:43:39;;;;;;;12.23;2.63;;;9.10;99.90;;;;;;4991197;28;20042;-69
2023/05/27 00:46:05;;;;;;;12.50;2.00;;;9.10;99.90;;;;;;5006848;28;20041;-69
2023/05/27 00:48:32;;;;;;;12.95;2.38;;;9.00;99.90;;;;;;4991800;28;20049;-70
2023/05/27 00:50:58;;;;;;;9.82;2.40;;;9.00;99.90;;;;;;5005898;28;20052;-69
2023/05/27 00:53:24;;;;;;;12.35;2.63;;;9.00;99.90;;;;;;5021235;28;20440;-70
2023/05/27 00:55:58;;;;;;;10.82;2.15;;;9.00;99.90;;;;;;5000541;28;20484;-70
2023/05/27 00:58:24;;;;;;;14.90;2.58;;;8.90;99.90;;;;;;4994388;28;20711;-69
2023/05/27 01:00:51;;;;;;;10.52;1.98;;;8.90;99.90;;;;;;4997130;28;20037;-69
2023/05/27 01:03:17;;;;;;;11.93;2.70;;;8.90;99.90;;;;;;5009384;28;20033;-70
2023/05/27 01:05:43;;;;;;;14.68;2.92;;;8.80;99.90;;;;;;5010344;28;20029;-71
2023/05/27 01:08:23;;;;;;;12.00;2.72;;;8.80;99.90;;;;;;5009841;28;20463;-69
2023/05/27 01:10:52;;;;;;;13.18;2.75;;;8.80;99.90;;;;;;4997264;28;20237;-70
2023/05/27 01:13:36;;;;;;;13.90;2.25;;;8.80;99.90;;;;;;5020100;28;21317;-70
2023/05/27 01:16:10;;;;;;;11.80;2.70;;;8.70;99.90;;;;;;5019803;28;20033;-69
2023/05/27 01:18:41;;;;;;;14.93;2.67;;;8.70;99.90;;;;;;5012527;28;20037;-71
2023/05/27 01:21:12;;;;;;;6.90;1.52;;;8.70;99.90;;;;;;4999295;28;20036;-69
2023/05/27 01:23:41;;;;;;;13.98;3.13;;;8.70;99.90;;;;;;5005156;28;20041;-69
2023/05/27 01:26:08;;;;;;;16.60;2.67;;;8.70;99.90;;;;;;4990272;28;20044;-69
2023/05/27 01:28:35;;;;;;;14.73;2.30;;;8.70;99.90;;;;;;5005791;28;22286;-70
2023/05/27 01:31:24;;;;;;;8.70;1.80;;;8.70;99.90;;;;;;4999764;28;20436;-70
2023/05/27 01:33:59;;;;;;;11.90;3.10;;;8.60;99.90;;;;;;5012541;28;20040;-70
2023/05/27 01:36:30;;;;;;;11.43;2.53;;;8.60;99.90;;;;;;5018191;28;20032;-70
2023/05/27 01:38:57;;;;;;;12.48;1.95;;;8.60;99.90;;;;;;5017732;28;20041;-69
2023/05/27 01:41:25;;;;;;;9.05;2.10;;;8.60;99.90;;;;;;5002068;28;20604;-69
2023/05/27 01:43:51;;;;;;;14.02;2.80;;;8.60;99.90;;;;;;5006162;28;20033;-70
2023/05/27 01:46:18;;;;;;;14.65;2.70;;;8.60;99.90;;;;;;5006439;28;20032;-71
2023/05/27 01:48:44;;;;;;;12.82;2.70;;;8.60;99.90;;;;;;4990460;28;20037;-71
2023/05/27 01:51:10;;;;;;;15.80;2.47;;;8.60;99.90;;;;;;4981769;28;20049;-71
2023/05/27 01:53:39;;;;;;;13.30;3.53;;;8.60;99.90;;;;;;4991605;28;21185;-70
2023/05/27 01:56:06;;;;;;;11.10;2.45;;;8.50;99.90;;;;;;5001297;28;20032;-69
2023/05/27 01:58:33;;;;;;;10.90;2.28;;;8.50;99.90;;;;;;5017296;28;20491;-69
2023/05/27 02:01:00;;;;;;;14.48;2.50;;;8.50;99.90;;;;;;5004462;28;20044;-69
2023/05/27 02:03:26;;;;;;;12.45;2.17;;;8.50;99.90;;;;;;5007540;28;20029;-69
2023/05/27 02:05:53;;;;;;;10.38;2.55;;;8.50;99.90;;;;;;4989434;28;20082;-68
2023/05/27 02:08:19;;;;;;;12.30;2.03;;;8.50;99.90;;;;;;5005806;28;20037;-69
2023/05/27 02:10:46;;;;;;;14.02;2.65;;;8.50;99.90;;;;;;4995321;28;20033;-69
2023/05/27 02:13:12;;;;;;;9.27;2.50;;;8.50;99.90;;;;;;4970874;28;20054;-69
2023/05/27 02:15:40;;;;;;;14.55;3.00;;;8.50;99.90;;;;;;5006049;28;20037;-70
2023/05/27 02:18:06;;;;;;;8.77;2.28;;;8.40;99.90;;;;;;5014935;28;20033;-69
2023/05/27 02:20:33;;;;;;;12.35;2.97;;;8.40;99.90;;;;;;4990041;28;20045;-69
2023/05/27 02:23:04;;;;;;;11.80;2.35;;;8.40;99.90;;;;;;5007812;28;20083;-68
2023/05/27 02:25:32;;;;;;;11.95;2.28;;;8.30;99.90;;;;;;4987499;28;20660;-68
2023/05/27 02:28:02;;;;;;;17.00;2.83;;;8.30;99.90;;;;;;5004065;28;20052;-69
2023/05/27 02:30:32;;;;;;;12.27;2.92;;;8.30;99.90;;;;;;4996224;28;20044;-69
2023/05/27 02:32:58;;;;;;;9.52;2.67;;;8.30;99.90;;;;;;5001387;28;20040;-69
2023/05/27 02:35:24;;;;;;;15.27;2.60;;;8.20;99.90;;;;;;5007394;28;20041;-70
2023/05/27 02:37:52;;;;;;;12.90;2.40;;;8.20;99.90;;;;;;5015917;28;20075;-70
2023/05/27 02:40:25;;;;;;;9.18;2.05;;;8.20;99.90;;;;;;5005684;28;22260;-70
2023/05/27 02:42:51;;;;;;;15.57;3.08;;;8.20;99.90;;;;;;4992395;28;21341;-68
2023/05/27 02:45:17;;;;;;;20.33;4.38;;;8.20;99.90;;;;;;5017100;28;20048;-68
2023/05/27 02:47:44;;;;;;;14.38;2.85;;;8.10;99.90;;;;;;4987552;28;21166;-69
2023/05/27 02:50:11;;;;;;;13.02;2.30;;;8.00;99.90;;;;;;4996973;28;20041;-68
2023/05/27 02:52:37;;;;;;;14.68;2.75;;;8.00;99.90;;;;;;5003390;28;20522;-68
2023/05/27 02:55:04;;;;;;;8.27;2.13;;;8.00;99.90;;;;;;5006887;28;20036;-69
2023/05/27 02:57:32;;;;;;;5.88;1.80;;;8.00;99.90;;;;;;5013568;28;20025;-68
2023/05/27 02:59:58;;;;;;;15.43;2.40;;;7.90;99.90;;;;;;4990431;28;20040;-69
2023/05/27 03:02:25;;;;;;;13.65;3.60;;;7.90;99.90;;;;;;4999674;28;20456;-69
2023/05/27 03:04:55;;;;;;;14.70;3.80;;;7.90;99.90;;;;;;5009114;28;20032;-68
2023/05/27 03:07:21;;;;;;;12.85;2.83;;;7.90;99.90;;;;;;5006432;28;20035;-69
2023/05/27 03:09:48;;;;;;;21.20;4.85;;;7.80;99.90;;;;;;4981209;28;21318;-69
2023/05/27 03:12:14;;;;;;;19.60;4.25;;;7.80;99.90;;;;;;5000800;28;20025;-69
2023/05/27 03:14:40;;;;;;;14.55;3.25;;;7.80;99.90;;;;;;4988270;28;20531;-68
2023/05/27 03:17:08;;;;;;;15.18;2.65;;;7.80;99.90;;;;;;5020095;28;21743;-70
2023/05/27 03:19:34;;;;;;;9.77;2.60;;;7.80;99.90;;;;;;5010979;28;20622;-70
2023/05/27 03:22:01;;;;;;;12.55;2.58;;;7.80;99.90;;;;;;5012587;28;20415;-69
2023/05/27 03:24:27;;;;;;;15.95;3.03;;;7.70;99.90;;;;;;5013122;28;20041;-68
2023/05/27 03:26:54;;;;;;;14.75;2.92;;;7.80;99.90;;;;;;5003696;28;20044;-69
2023/05/27 03:29:20;;;;;;;16.70;4.05;;;7.80;99.90;;;;;;5003316;28;20048;-68
2023/05/27 03:31:48;;;;;;;15.63;4.82;;;7.80;99.90;;;;;;4982971;28;20046;-69
2023/05/27 03:34:17;;;;;;;8.40;2.88;;;7.80;99.90;;;;;;4990672;28;20045;-69
2023/05/27 03:36:45;;;;;;;15.88;3.35;;;7.80;99.90;;;;;;5004577;28;20044;-68
2023/05/27 03:39:13;;;;;;;17.88;3.17;;;7.80;99.90;;;;;;5026957;28;20036;-68
2023/05/27 03:41:50;;;;;;;12.30;2.47;;;7.80;99.90;;;;;;5012307;28;20067;-70
2023/05/27 03:44:17;;;;;;;12.98;3.03;;;7.80;99.90;;;;;;5000188;28;20033;-70
2023/05/27 03:46:43;;;;;;;9.20;2.03;;;7.80;99.90;;;;;;5008438;28;20032;-68
2023/05/27 03:49:10;;;;;;;12.25;2.45;;;7.80;99.90;;;;;;5003587;28;21526;-68
2023/05/27 03:51:36;;;;;;;10.50;2.67;;;7.80;99.90;;;;;;4980555;28;20052;-70
2023/05/27 03:54:03;;;;;;;16.50;3.45;;;7.80;99.90;;;;;;4988258;28;20033;-69
2023/05/27 03:56:31;;;;;;;17.30;3.72;;;7.90;99.90;;;;;;5003220;28;20048;-69
2023/05/27 03:58:57;;;;;;;9.75;2.42;;;7.90;99.90;;;;;;4992075;28;20488;-69
2023/05/27 04:01:24;;;;;;;12.60;2.90;;;7.90;99.90;;;;;;5005205;28;20695;-70
2023/05/27 04:03:50;;;;;;;11.40;3.17;;;7.90;99.90;;;;;;4999505;28;20041;-69
2023/05/27 04:06:16;;;;;;;13.13;3.08;;;7.90;99.90;;;;;;5008012;28;20033;-69
2023/05/27 04:08:43;;;;;;;18.23;3.72;;;8.00;99.90;;;;;;4987673;28;20048;-69
2023/05/27 04:11:12;;;;;;;13.02;3.10;;;8.00;99.90;;;;;;4993042;28;20025;-69
2023/05/27 04:13:39;;;;;;;15.90;4.65;;;8.00;99.90;;;;;;4987422;28;20044;-69
2023/05/27 04:16:07;;;;;;;17.83;3.45;;;8.00;99.90;;;;;;5006142;28;20484;-69
2023/05/27 04:18:33;;;;;;;12.38;2.45;;;8.10;99.90;;;;;;4999987;28;20033;-68
2023/05/27 04:21:00;;;;;;;15.13;3.22;;;8.10;99.90;;;;;;5012207;28;20049;-68
2023/05/27 04:23:28;;;;;;;15.73;4.40;;;8.20;99.90;;;;;;5004799;28;20159;-68
2023/05/27 04:25:55;;;;;;;15.82;3.53;;;8.20;99.90;;;;;;5025605;28;20033;-68
2023/05/27 04:28:25;;;;;;;17.55;3.60;;;8.20;99.90;;;;;;5007423;28;20051;-69
2023/05/27 04:30:53;;;;;;;15.13;3.08;;;8.30;99.90;;;;;;4999100;28;20059;-68
2023/05/27 04:33:32;;;;;;;17.35;4.32;;;8.40;99.90;;;;;;5007416;28;20040;-69
2023/05/27 04:35:58;;;;;;;14.32;3.33;;;8.40;99.90;;;;;;5007793;28;20029;-68
2023/05/27 04:38:31;;;;;;;8.52;2.67;;;8.50;99.90;;;;;;5008854;28;20040;-70
2023/05/27 04:41:03;;;;;;;19.00;3.80;;;8.60;99.90;;;;;;5012012;28;20037;-70
2023/05/27 04:43:44;;;;;;;12.38;2.90;;;8.70;99.90;;;;;;5020735;28;21094;-69
2023/05/27 04:46:14;;;;;;;20.58;3.65;;;8.70;99.90;;;;;;4999704;28;20037;-69
2023/05/27 04:48:44;;;;;;;8.70;2.67;;;8.80;99.90;;;;;;5006959;28;20154;-69
2023/05/27 04:51:15;;;;;;;12.65;3.03;;;8.90;99.90;;;;;;4998028;28;20475;-69
2023/05/27 04:53:42;;;;;;;15.52;2.92;;;9.00;99.90;;;;;;5007492;28;20048;-68
2023/05/27 04:56:08;;;;;;;22.27;3.83;;;9.10;99.90;;;;;;5010145;28;20043;-69
2023/05/27 04:58:39;;;;;;;11.52;3.00;;;9.20;99.90;;;;;;4990504;28;20508;-69
2023/05/27 05:01:05;;;;;;;12.07;2.97;;;9.30;99.90;;;;;;4990186;28;20041;-68
2023/05/27 05:03:50;;;;;;;14.68;3.38;;;9.40;99.90;;;;;;5005268;28;20507;-69
2023/05/27 05:06:22;;;;;;;20.40;4.57;;;9.50;99.90;;;;;;5013486;28;20036;-69
2023/05/27 05:08:50;;;;;;;11.10;3.00;;;9.70;99.90;;;;;;5006823;28;20037;-69
2023/05/27 05:11:16;;;;;;;14.25;3.00;;;9.80;99.90;;;;;;4998374;28;20049;-69
2023/05/27 05:13:43;;;;;;;15.52;3.13;;;9.90;99.90;;;;;;4993668;28;20058;-69
2023/05/27 05:16:09;;;;;;;22.85;4.47;;;10.00;99.90;;;;;;4992690;28;20048;-69
2023/05/27 05:18:35;;;;;;;16.30;3.72;;;10.10;99.90;;;;;;4990846;28;20025;-69
2023/05/27 05:21:03;;;;;;;15.30;3.67;;;10.20;99.90;;;;;;4990382;28;20041;-68
2023/05/27 05:23:39;;;;;;;14.32;4.20;;;10.30;99.90;;;;;;5031984;28;20068;-68
2023/05/27 05:26:07;;;;;;;13.55;3.03;;;10.40;99.90;;;;;;5000556;28;21211;-68
2023/05/27 05:28:38;;;;;;;15.38;3.60;;;10.50;99.90;;;;;;4994467;28;20029;-69
2023/05/27 05:31:06;;;;;;;16.90;3.53;;;10.60;99.90;;;;;;4967911;28;20410;-69
2023/05/27 05:33:33;;;;;;;16.88;4.20;;;10.80;99.90;;;;;;5007254;28;20045;-68
2023/05/27 05:36:01;;;;;;;14.75;4.05;;;10.80;99.90;;;;;;4990288;28;20029;-68
2023/05/27 05:38:35;;;;;;;14.95;3.03;;;10.90;99.90;;;;;;5008524;28;20037;-69
2023/05/27 05:41:02;;;;;;;17.17;2.80;;;11.10;99.90;;;;;;5006765;28;21092;-70
2023/05/27 05:43:29;;;;;;;13.80;3.17;;;11.20;99.90;;;;;;5016746;28;20047;-68
2023/05/27 05:45:55;;;;;;;22.75;4.90;;;11.40;99.90;;;;;;5018664;28;20043;-68
2023/05/27 05:48:22;;;;;;;15.82;2.92;;;11.40;99.90;;;;;;4975884;28;20037;-69
2023/05/27 05:50:48;;;;;;;15.60;2.60;;;11.60;99.90;;;;;;4982714;28;20032;-68
2023/05/27 05:53:15;;;;;;;15.10;2.97;;;11.60;99.90;;;;;;4993956;28;20045;-69
2023/05/27 05:55:41;;;;;;;21.60;3.95;;;11.80;99.90;;;;;;4989852;28;20041;-68
2023/05/27 05:58:08;;;;;;;17.83;4.38;;;11.90;99.90;;;;;;5002491;28;20033;-69
2023/05/27 06:00:35;;;;;;;17.52;3.47;;;11.90;99.90;;;;;;5003332;28;20052;-68
2023/05/27 06:03:21;;;;;;;23.65;4.82;;;12.00;99.90;;;;;;5020064;28;20508;-70
2023/05/27 06:05:51;;;;;;;14.05;3.03;;;12.10;99.90;;;;;;5017593;28;20033;-69
2023/05/27 06:08:17;;;;;;;16.27;3.15;;;12.40;99.90;;;;;;4998029;28;20447;-70
2023/05/27 06:10:51;;;;;;;14.20;2.92;;;12.60;99.90;;;;;;4997678;28;20408;-69
2023/05/27 06:13:18;;;;;;;12.57;2.88;;;12.90;99.90;;;;;;4988197;28;20049;-71
2023/05/27 06:15:46;;;;;;;9.65;2.63;;;13.20;99.90;;;;;;4989309;28;20533;-69
2023/05/27 06:18:14;;;;;;;14.63;3.65;;;13.40;99.90;;;;;;5005989;28;21805;-69
2023/05/27 06:20:40;;;;;;;17.38;3.70;;;13.60;99.90;;;;;;4997737;28;20044;-71
2023/05/27 06:23:06;;;;;;;22.73;4.03;;;13.70;99.90;;;;;;4995867;28;20037;-70
2023/05/27 06:26:04;;;;;;;17.30;3.55;;;13.70;99.90;;;;;;5001254;28;20025;-69
2023/05/27 06:28:36;;;;;;;16.58;3.28;;;13.50;99.90;;;;;;4998874;28;20068;-69
2023/05/27 06:31:03;;;;;;;17.52;3.00;;;13.50;99.90;;;;;;4981728;28;20037;-69
2023/05/27 06:33:29;;;;;;;17.85;3.97;;;13.60;99.90;;;;;;4991203;28;20781;-69
2023/05/27 06:35:56;;;;;;;19.35;3.63;;;13.70;99.90;;;;;;4989681;28;20041;-68
2023/05/27 06:38:23;;;;;;;19.73;3.72;;;13.90;99.90;;;;;;5002934;28;20478;-70
2023/05/27 06:40:51;;;;;;;16.17;3.90;;;14.00;99.90;;;;;;4998098;28;20036;-68
2023/05/27 06:43:17;;;;;;;13.00;2.85;;;14.10;99.90;;;;;;5023391;28;20021;-69
2023/05/27 06:45:55;;;;;;;18.73;3.80;;;14.30;99.90;;;;;;5001031;28;20053;-69
2023/05/27 06:48:38;;;;;;;13.02;3.00;;;14.50;99.90;;;;;;5005800;28;20047;-69
2023/05/27 06:51:06;;;;;;;17.40;3.22;;;14.50;99.90;;;;;;4998982;28;20593;-69
2023/05/27 06:53:32;;;;;;;16.83;4.10;;;14.60;99.90;;;;;;5002564;28;21603;-70
2023/05/27 06:56:07;;;;;;;13.65;3.28;;;14.70;99.90;;;;;;4988626;28;22250;-70
2023/05/27 06:58:56;;;;;;;15.23;3.83;;;14.60;99.90;;;;;;5001894;28;21394;-69
2023/05/27 07:01:23;;;;;;;10.75;2.55;;;14.70;99.90;;;;;;4982084;28;20025;-70
2023/05/27 07:04:00;;;;;;;14.27;3.15;;;14.70;99.90;;;;;;5012309;28;20041;-69
2023/05/27 07:06:43;;;;;;;10.75;3.40;;;14.90;99.90;;;;;;5017532;28;20033;-71
2023/05/27 07:09:12;;;;;;;13.13;3.53;;;15.00;99.90;;;;;;5014198;28;20037;-70
2023/05/27 07:11:38;;;;;;;15.98;3.92;;;15.20;99.90;;;;;;4965018;28;21438;-71
2023/05/27 07:14:10;;;;;;;18.73;3.92;;;15.30;99.90;;;;;;5004965;28;21240;-69
2023/05/27 07:16:36;;;;;;;13.38;3.38;;;15.40;99.90;;;;;;5021535;28;20044;-68
2023/05/27 07:19:03;;;;;;;16.17;3.72;;;15.40;99.90;;;;;;4987018;28;20040;-68
2023/05/27 07:21:34;;;;;;;13.70;3.13;;;15.40;99.90;;;;;;4972269;28;20040;-69
2023/05/27 07:24:07;;;;;;;13.32;3.28;;;15.50;99.90;;;;;;4993120;28;20692;-69
2023/05/27 07:26:34;;;;;;;13.18;3.55;;;15.70;99.90;;;;;;5017420;28;20245;-69
2023/05/27 07:29:02;;;;;;;13.00;4.10;;;15.90;99.90;;;;;;5020842;28;20048;-69
2023/05/27 07:31:47;;;;;;;12.15;5.03;;;16.00;99.90;;;;;;4995985;28;20048;-70
2023/05/27 07:34:15;;;;;;;11.90;3.92;;;16.20;99.90;;;;;;4992103;28;20411;-69
2023/05/27 07:36:41;;;;;;;12.77;3.08;;;16.30;99.90;;;;;;5006498;28;20044;-70
2023/05/27 07:39:08;;;;;;;12.85;2.97;;;16.40;99.90;;;;;;4975373;28;20460;-69
2023/05/27 07:41:34;;;;;;;16.13;3.28;;;16.50;99.90;;;;;;4986624;28;20068;-70
2023/05/27 07:44:02;;;;;;;13.20;3.45;;;16.70;99.90;;;;;;4988713;28;20040;-69
2023/05/27 07:46:30;;;;;;;12.85;3.50;;;16.70;99.90;;;;;;5010731;28;20403;-70
2023/05/27 07:48:56;;;;;;;15.25;4.28;;;16.80;99.90;;;;;;5018788;28;20038;-70
2023/05/27 07:51:23;;;;;;;11.85;2.78;;;17.00;99.90;;;;;;5009633;28;20059;-69
2023/05/27 07:53:50;;;;;;;14.55;3.22;;;17.00;99.90;;;;;;5010477;28;20488;-68
2023/05/27 07:56:18;;;;;;;11.55;2.58;;;17.00;99.90;;;;;;4991315;28;20040;-68
2023/05/27 07:58:45;;;;;;;10.20;2.92;;;17.10;99.90;;;;;;5005780;28;20384;-68
2023/05/27 08:01:13;;;;;;;9.38;2.33;;;17.30;99.90;;;;;;4999834;28;20334;-69
2023/05/27 08:03:45;;;;;;;9.57;2.75;;;17.50;99.90;;;;;;5008153;28;21227;-68
2023/05/27 08:06:40;;;;;;;13.05;3.78;;;17.60;99.90;;;;;;5002179;28;20431;-70
2023/05/27 08:09:21;;;;;;;15.40;3.47;;;17.70;99.90;;;;;;5000249;28;20171;-69
2023/05/27 08:12:11;;;;;;;14.63;3.25;;;17.70;99.90;;;;;;4975690;28;20041;-68
2023/05/27 08:14:48;;;;;;;16.13;4.57;;;17.80;99.90;;;;;;5022000;28;20048;-68
2023/05/27 08:17:33;;;;;;;11.52;3.53;;;17.90;99.90;;;;;;5007549;28;20429;-67
2023/05/27 08:20:18;;;;;;;15.15;3.95;;;18.00;99.90;;;;;;4995598;28;20388;-67
2023/05/27 08:23:14;;;;;;;12.15;4.18;;;18.10;99.90;;;;;;4992981;28;20546;-68
2023/05/27 08:25:51;;;;;;;11.38;3.10;;;18.00;99.90;;;;;;5008505;28;20435;-68
2023/05/27 08:28:36;;;;;;;12.00;3.38;;;18.00;99.90;;;;;;5019924;28;20415;-67
2023/05/27 08:31:21;;;;;;;11.68;3.58;;;18.30;99.90;;;;;;4993104;28;20051;-69
2023/05/27 08:33:54;;;;;;;11.20;3.60;;;18.40;99.90;;;;;;5008259;28;20060;-70
2023/05/27 08:36:21;;;;;;;13.52;4.47;;;18.40;99.90;;;;;;4987958;28;20033;-68
2023/05/27 08:38:49;;;;;;;13.00;3.80;;;18.40;99.90;;;;;;5007852;28;20044;-68
2023/05/27 08:41:29;;;;;;;6.63;2.20;;;18.50;99.90;;;;;;4983214;28;20511;-69
2023/05/27 08:43:57;;;;;;;14.32;3.63;;;18.70;99.90;;;;;;5007665;28;20617;-70
2023/05/27 08:46:25;;;;;;;10.32;2.95;;;19.00;99.90;;;;;;5007500;28;20078;-70
2023/05/27 08:48:55;;;;;;;10.27;3.42;;;19.20;99.90;;;;;;5009235;28;20393;-68
2023/05/27 08:51:23;;;;;;;15.20;3.70;;;19.40;99.90;;;;;;4991640;28;20049;-69
2023/05/27 08:53:50;;;;;;;8.27;1.80;;;19.60;99.80;;;;;;5011743;28;20387;-67
2023/05/27 08:56:19;;;;;;;13.18;3.40;;;19.80;99.80;;;;;;4991323;28;20025;-68
2023/05/27 08:58:47;;;;;;;12.65;3.63;;;20.00;99.20;;;;;;4992374;28;20053;-70
2023/05/27 09:01:19;;;;;;;11.15;3.15;;;20.00;98.60;;;;;;5000416;28;20477;-68
2023/05/27 09:03:47;;;;;;;9.20;3.10;;;20.20;98.60;;;;;;5012660;28;20036;-68
2023/05/27 09:06:14;;;;;;;9.70;3.35;;;20.20;98.10;;;;;;5007489;28;20037;-68
2023/05/27 09:08:41;;;;;;;10.65;3.03;;;20.20;97.60;;;;;;5023763;28;20047;-69
2023/05/27 09:11:08;;;;;;;11.43;3.15;;;20.30;97.40;;;;;;5011714;28;20025;-69
2023/05/27 09:13:34;;;;;;;13.48;4.05;;;20.50;97.40;;;;;;5020916;28;20041;-68
2023/05/27 09:16:05;;;;;;;12.80;4.45;;;20.60;97.00;;;;;;4993346;28;20480;-68
2023/05/27 09:18:33;;;;;;;14.48;4.68;;;20.70;96.10;;;;;;5014268;28;21647;-68
2023/05/27 09:20:59;;;;;;;17.10;4.53;;;20.70;96.00;;;;;;5002466;28;20460;-68
2023/05/27 09:23:26;;;;;;;18.52;4.65;;;20.60;95.30;;;;;;5009475;28;20036;-69
2023/05/27 09:25:53;;;;;;;11.25;3.42;;;20.60;95.10;;;;;;5013845;28;20036;-69
2023/05/27 09:28:26;;;;;;;13.07;3.75;;;20.70;95.40;;;;;;5021463;28;20447;-69
2023/05/27 09:31:04;;;;;;;15.05;3.95;;;20.80;95.10;;;;;;5000870;28;20036;-70
2023/05/27 09:33:33;;;;;;;12.13;3.35;;;21.00;95.00;;;;;;5022561;28;20049;-69
2023/05/27 09:36:01;;;;;;;15.43;4.60;;;21.10;94.90;;;;;;4996001;28;20366;-68
2023/05/27 09:38:32;;;;;;;8.30;2.53;;;21.20;94.40;;;;;;5012669;28;20040;-68
2023/05/27 09:40:59;;;;;;;15.15;4.25;;;21.20;94.30;;;;;;5005274;28;20045;-69
2023/05/27 09:43:26;;;;;;;8.60;2.80;;;21.40;93.80;;;;;;5012607;28;20033;-69
2023/05/27 09:46:07;;;;;;;13.00;3.03;;;21.40;93.90;;;;;;5014818;28;20248;-69
2023/05/27 09:48:34;;;;;;;15.05;4.88;;;21.60;93.40;;;;;;5018174;28;20056;-69
2023/05/27 09:51:00;;;;;;;10.77;3.90;;;21.80;93.30;;;;;;4998164;28;20043;-69
2023/05/27 09:53:28;;;;;;;10.25;3.33;;;21.90;92.60;;;;;;5024649;28;20348;-67
2023/05/27 09:55:55;;;;;;;13.63;4.32;;;22.00;92.80;;;;;;4997565;28;20045;-67
2023/05/27 09:58:23;;;;;;;10.00;2.80;;;22.10;91.80;;;;;;5013534;28;20499;-69
2023/05/27 10:00:50;;;;;;;11.48;3.22;;;22.10;91.90;;;;;;5006108;28;20025;-68
2023/05/27 10:03:20;;;;;;;9.25;3.28;;;22.10;91.40;;;;;;5011112;28;20045;-70
2023/05/27 10:05:48;;;;;;;15.32;4.57;;;22.10;91.60;;;;;;5012848;28;20040;-69
2023/05/27 10:08:14;;;;;;;15.57;3.22;;;22.20;91.10;;;;;;5015926;28;20095;-69
2023/05/27 10:10:41;;;;;;;8.20;2.67;;;22.40;91.10;;;;;;5013845;28;20523;-70
2023/05/27 10:13:08;;;;;;;10.63;3.90;;;22.60;90.80;;;;;;5020775;28;20044;-68
2023/05/27 10:15:35;;;;;;;10.18;2.97;;;22.70;90.40;;;;;;5016393;28;20036;-69
2023/05/27 10:18:06;;;;;;;10.85;2.75;;;22.80;90.30;;;;;;4993914;28;20033;-69
2023/05/27 10:20:36;;;;;;;10.20;2.45;;;22.90;90.30;;;;;;5003293;28;20041;-69
2023/05/27 10:23:18;;;;;;;10.40;2.38;;;23.10;89.80;;;;;;5011342;28;20484;-68
2023/05/27 10:25:52;;;;;;;12.70;4.85;;;23.40;89.50;;;;;;5002877;28;20044;-69
2023/05/27 10:28:40;;;;;;;11.77;3.63;;;23.60;88.40;;;;;;5011928;28;20028;-69
2023/05/27 10:31:08;;;;;;;8.27;2.50;;;23.60;87.20;;;;;;5013408;28;20435;-70
2023/05/27 10:33:38;;;;;;;12.38;3.00;;;23.80;87.20;;;;;;5021422;28;20041;-69
2023/05/27 10:36:13;;;;;;;11.77;3.70;;;24.00;86.10;;;;;;5016293;28;20033;-69
2023/05/27 10:38:41;;;;;;;15.75;3.30;;;24.10;83.80;;;;;;5010323;28;20091;-69
2023/05/27 10:41:08;;;;;;;9.57;3.20;;;24.30;83.60;;;;;;5002579;28;20025;-70
2023/05/27 10:43:35;;;;;;;7.60;2.75;;;24.50;82.00;;;;;;5010319;28;21120;-69
2023/05/27 10:46:08;;;;;;;11.27;3.33;;;24.70;82.20;;;;;;5011165;28;20041;-69
2023/05/27 10:48:35;;;;;;;9.35;2.95;;;25.10;80.90;;;;;;4992301;28;20033;-68
2023/05/27 10:51:01;;;;;;;11.10;3.40;;;25.40;80.10;;;;;;5006979;28;20043;-70
2023/05/27 10:53:28;;;;;;;10.63;3.90;;;25.60;78.60;;;;;;5020927;28;20041;-70
2023/05/27 10:55:58;;;;;;;11.93;4.20;;;25.80;78.20;;;;;;5003502;28;20025;-69
2023/05/27 10:58:25;;;;;;;11.23;4.35;;;26.10;75.90;;;;;;5011982;28;20083;-69
2023/05/27 11:00:53;;;;;;;11.02;4.13;;;26.40;75.10;;;;;;5004219;28;20603;-70
2023/05/27 11:03:22;;;;;;;6.43;2.53;;;26.60;73.80;;;;;;5010779;28;20507;-68
2023/05/27 11:06:05;;;;;;;12.82;3.50;;;26.80;74.10;;;;;;5009875;28;20391;-67
2023/05/27 11:08:32;;;;;;;12.95;3.40;;;26.90;72.20;;;;;;5005963;28;20620;-68
2023/05/27 11:11:05;;;;;;;8.80;3.35;;;27.00;72.30;;;;;;4996821;28;20024;-67
2023/05/27 11:13:33;;;;;;;12.05;3.15;;;27.30;71.40;;;;;;5016869;28;20047;-68
2023/05/27 11:16:01;;;;;;;13.27;3.33;;;27.50;70.60;;;;;;5019278;28;20376;-69
2023/05/27 11:18:35;;;;;;;12.23;3.53;;;27.80;69.80;;;;;;5015117;28;22434;-68
2023/05/27 11:21:04;;;;;;;9.57;3.08;;;28.00;69.40;;;;;;5003462;28;20052;-69
2023/05/27 11:23:43;;;;;;;9.48;3.17;;;28.20;68.30;;;;;;5008467;28;20033;-68
2023/05/27 11:26:23;;;;;;;10.93;3.15;;;28.60;68.20;;;;;;5005499;28;20048;-69
2023/05/27 11:28:57;;;;;;;10.07;3.05;;;28.80;64.90;;;;;;5006707;28;20036;-68
2023/05/27 11:31:31;;;;;;;9.30;3.10;;;28.90;64.20;;;;;;5001936;28;20044;-70
2023/05/27 11:33:57;;;;;;;11.55;3.70;;;29.10;63.60;;;;;;5008825;28;20191;-68
2023/05/27 11:36:29;;;;;;;12.43;3.72;;;29.40;61.70;;;;;;5014549;28;20032;-69
2023/05/27 11:39:00;;;;;;;10.70;3.60;;;29.50;59.90;;;;;;5030041;28;20052;-69
2023/05/27 11:41:30;;;;;;;7.10;2.75;;;29.50;59.40;;;;;;5001596;28;20500;-68
2023/05/27 11:43:57;;;;;;;8.45;2.85;;;29.60;59.70;;;;;;5005619;28;20037;-69
2023/05/27 11:46:44;;;;;;;8.10;2.25;;;29.90;59.30;;;;;;5005020;28;20453;-68
2023/05/27 11:49:15;;;;;;;9.32;3.15;;;30.20;59.20;;;;;;5007654;28;20068;-69
2023/05/27 11:51:46;;;;;;;13.15;3.80;;;30.60;58.20;;;;;;5004949;28;20040;-69
2023/05/27 11:54:18;;;;;;;9.77;2.67;;;30.80;56.10;;;;;;5011755;28;20044;-67
2023/05/27 11:56:45;;;;;;;;;;;30.70;54.20;;;;;;5019509;28;20292;-68
2023/05/27 11:59:13;;;;;;;8.68;2.60;;;30.70;54.40;;;;;;5015634;28;19916;-68
2023/05/27 12:01:40;;;;;;;8.48;3.00;;;30.90;54.20;;;;;;4973961;28;20471;-67
2023/05/27 12:04:07;;;;;;;10.40;3.15;;;31.20;54.10;;;;;;5010176;28;20040;-69
2023/05/27 12:06:35;;;;;;;7.10;2.90;;;31.30;53.00;;;;;;5009332;28;20480;-68
2023/05/27 12:09:06;;;;;;;8.18;3.00;;;31.50;52.70;;;;;;4991010;28;20053;-68
2023/05/27 12:11:33;;;;;;;8.57;3.30;;;31.90;51.90;;;;;;5000216;28;20041;-69
2023/05/27 12:14:00;;;;;;;7.22;2.88;;;31.70;49.20;;;;;;5020716;28;20621;-69
2023/05/27 12:16:26;;;;;;;39.97;30.90;;;31.70;50.10;;;;;;5017380;28;20434;-68
2023/05/27 12:18:53;;;;;;;31.65;19.55;;;31.90;49.70;;;;;;5018610;28;20038;-68
2023/05/27 12:21:20;;;;;;;11.77;5.40;;;32.10;49.80;;;;;;5013063;28;20885;-69
2023/05/27 12:23:47;;;;;;;8.98;3.05;;;32.40;49.70;;;;;;5011587;28;20528;-69
2023/05/27 12:26:14;;;;;;;9.32;3.47;;;32.50;48.90;;;;;;5006725;28;20056;-69
2023/05/27 12:28:41;;;;;;;11.40;3.47;;;32.60;48.20;;;;;;5006952;28;20045;-68
2023/05/27 12:31:08;;;;;;;10.10;2.95;;;32.70;47.70;;;;;;5003154;28;20047;-70
2023/05/27 12:33:34;;;;;;;7.03;2.53;;;32.70;47.30;;;;;;5005596;28;20080;-70
2023/05/27 12:36:02;;;;;;;8.70;3.97;;;32.80;47.10;;;;;;5025694;28;20028;-68
2023/05/27 12:38:28;;;;;;;8.85;3.60;;;33.00;47.30;;;;;;5038311;28;20044;-70
2023/05/27 12:40:57;;;;;;;8.40;2.92;;;33.40;47.60;;;;;;5016185;28;20064;-70
2023/05/27 12:43:24;;;;;;;11.82;4.95;;;33.90;47.60;;;;;;5016436;28;20021;-69
2023/05/27 12:45:50;;;;;;;11.77;4.22;;;34.30;46.80;;;;;;5012443;28;20036;-70
2023/05/27 12:48:20;;;;;;;7.50;3.75;;;34.70;46.30;;;;;;5012469;28;20360;-68
2023/05/27 12:50:46;;;;;;;10.27;3.50;;;34.70;45.70;;;;;;5006761;28;20029;-70
2023/05/27 12:53:13;;;;;;;9.05;2.95;;;34.70;45.60;;;;;;5013005;28;20408;-70
2023/05/27 12:55:45;;;;;;;11.27;5.85;;;34.70;45.40;;;;;;4979512;28;20056;-69